createdAt,value
2024-01-03T00:01:30.099Z,98215.00
2024-01-03T00:04:00.910Z,98220.84
2024-01-03T00:06:33.767Z,98216.41
2024-01-03T00:09:01.873Z,98214.88
2024-01-03T00:11:32.117Z,98218.28
2024-01-03T00:14:08.412Z,98219.78
2024-01-03T00:16:39.917Z,98201.94
2024-01-03T00:19:16.889Z,98209.00
2024-01-03T00:21:44.923Z,98197.91
2024-01-03T00:24:16.062Z,98203.63
2024-01-03T00:26:44.227Z,98202.69
2024-01-03T00:29:56.105Z,98191.25
2024-01-03T00:32:25.446Z,98199.84
2024-01-03T00:34:56.484Z,98192.16
2024-01-03T00:37:27.509Z,98190.84
2024-01-03T00:39:57.320Z,98199.34
2024-01-03T00:42:25.694Z,98187.91
2024-01-03T00:44:54.023Z,98194.25
2024-01-03T00:47:24.186Z,98185.25
2024-01-03T00:49:53.317Z,98192.28
2024-01-03T00:52:22.955Z,98192.78
2024-01-03T00:54:51.117Z,98195.63
2024-01-03T00:57:19.176Z,98192.78
2024-01-03T00:59:47.652Z,98194.59
2024-01-03T01:02:16.109Z,98184.44
2024-01-03T01:04:44.342Z,98182.13
2024-01-03T01:07:13.101Z,98187.78
2024-01-03T01:09:42.385Z,98186.31
2024-01-03T01:12:10.436Z,98184.66
2024-01-03T01:14:38.393Z,98180.13
2024-01-03T01:17:06.567Z,98186.13
2024-01-03T01:19:34.688Z,98181.66
2024-01-03T01:22:02.728Z,98182.81
2024-01-03T01:24:30.666Z,98175.47
2024-01-03T01:27:00.287Z,98184.47
2024-01-03T01:29:28.420Z,98176.28
2024-01-03T01:31:56.358Z,98177.78
2024-01-03T01:34:24.204Z,98171.66
2024-01-03T01:36:52.416Z,98174.13
2024-01-03T01:39:20.328Z,98172.63
2024-01-03T01:41:48.261Z,98177.28
2024-01-03T01:44:17.710Z,98177.06
2024-01-03T01:46:47.931Z,98181.09
2024-01-03T01:49:19.769Z,98182.78
2024-01-03T01:51:48.448Z,98187.22
2024-01-03T01:54:18.678Z,98185.63
2024-01-03T01:56:47.147Z,98195.13
2024-01-03T01:59:16.164Z,98194.50
2024-01-03T02:01:45.724Z,98192.09
2024-01-03T02:04:14.006Z,98180.31
2024-01-03T02:06:42.129Z,98184.00
2024-01-03T02:09:10.052Z,98182.13
2024-01-03T02:11:45.792Z,98183.13
2024-01-03T02:14:13.838Z,98164.91
2024-01-03T02:16:41.878Z,98175.59
2024-01-03T02:19:11.402Z,98166.16
2024-01-03T02:21:40.833Z,98173.47
2024-01-03T02:24:08.758Z,98162.81
2024-01-03T02:26:36.733Z,98163.03
2024-01-03T02:29:04.734Z,98167.50
2024-01-03T02:31:32.721Z,98160.16
2024-01-03T02:34:00.845Z,98166.63
2024-01-03T02:36:29.488Z,98158.78
2024-01-03T02:39:00.454Z,98150.63
2024-01-03T02:41:28.487Z,98152.59
2024-01-03T02:43:56.392Z,98135.81
2024-01-03T02:46:24.344Z,98150.88
2024-01-03T02:48:52.732Z,98166.56
2024-01-03T02:51:20.988Z,98167.19
2024-01-03T02:53:49.300Z,98157.16
2024-01-03T02:56:19.029Z,98166.16
2024-01-03T02:58:47.392Z,98172.94
2024-01-03T03:01:15.481Z,98180.00
2024-01-03T03:03:43.638Z,98178.34
2024-01-03T03:06:11.786Z,98167.66
2024-01-03T03:08:39.867Z,98177.50
2024-01-03T03:11:09.146Z,98173.97
2024-01-03T03:13:38.401Z,98168.06
2024-01-03T03:16:08.514Z,98173.78
2024-01-03T03:18:36.803Z,98186.16
2024-01-03T03:21:05.080Z,98179.63
2024-01-03T03:23:33.053Z,98185.00
2024-01-03T03:26:04.325Z,98185.66
2024-01-03T03:28:32.687Z,98176.13
2024-01-03T03:31:03.565Z,98182.81
2024-01-03T03:33:32.096Z,98178.28
2024-01-03T03:36:00.075Z,98175.28
2024-01-03T03:38:27.982Z,98176.91
2024-01-03T03:40:55.896Z,98171.22
2024-01-03T03:43:23.734Z,98177.75
2024-01-03T03:45:51.559Z,98177.78
2024-01-03T03:48:22.214Z,98176.97
2024-01-03T03:50:50.187Z,98177.97
2024-01-03T03:53:18.076Z,98177.16
2024-01-03T03:55:46.096Z,98181.63
2024-01-03T03:58:14.146Z,98182.16
2024-01-03T04:00:42.046Z,98181.34
2024-01-03T04:03:10.168Z,98186.28
2024-01-03T04:05:40.660Z,98171.38
2024-01-03T04:08:09.476Z,98185.69
2024-01-03T04:10:38.589Z,98179.66
2024-01-03T04:13:07.205Z,98171.69
2024-01-03T04:15:35.506Z,98175.44
2024-01-03T04:18:05.658Z,98161.28
2024-01-03T04:20:33.978Z,98167.53
2024-01-03T04:23:03.746Z,98171.88
2024-01-03T04:25:31.658Z,98170.63
2024-01-03T04:27:59.477Z,98170.72
2024-01-03T04:30:27.548Z,98176.38
2024-01-03T04:32:55.661Z,98175.06
2024-01-03T04:35:23.641Z,98163.81
2024-01-03T04:37:51.512Z,98158.28
2024-01-03T04:40:20.905Z,98163.63
2024-01-03T04:42:48.772Z,98155.63
2024-01-03T04:45:16.738Z,98162.63
2024-01-03T04:47:44.782Z,98175.16
2024-01-03T04:50:12.678Z,98174.09
2024-01-03T04:52:40.568Z,98172.25
2024-01-03T04:55:09.822Z,98167.34
2024-01-03T04:57:40.487Z,98179.03
2024-01-03T05:00:09.040Z,98172.41
2024-01-03T05:02:38.438Z,98170.91
2024-01-03T05:05:06.651Z,98172.06
2024-01-03T05:07:35.349Z,98163.66
2024-01-03T05:10:03.723Z,98176.09
2024-01-03T05:12:31.698Z,98159.88
2024-01-03T05:15:01.079Z,98162.22
2024-01-03T05:17:29.403Z,98166.13
2024-01-03T05:19:58.290Z,98165.72
2024-01-03T05:22:26.519Z,98173.34
2024-01-03T05:24:55.556Z,98166.28
2024-01-03T05:27:23.622Z,98172.41
2024-01-03T05:29:51.727Z,98151.81
2024-01-03T05:32:21.175Z,98172.81
2024-01-03T05:34:49.115Z,98182.78
2024-01-03T05:37:17.122Z,98174.03
2024-01-03T05:39:45.214Z,98178.41
2024-01-03T05:42:13.160Z,98176.69
2024-01-03T05:44:41.102Z,98183.22
2024-01-03T05:47:09.087Z,98158.25
2024-01-03T05:49:38.498Z,98190.97
2024-01-03T05:52:07.132Z,98200.16
2024-01-03T05:54:35.201Z,98183.88
2024-01-03T05:57:04.104Z,98182.53
2024-01-03T05:59:32.333Z,98178.25
2024-01-03T06:02:00.285Z,98182.97
2024-01-03T06:04:28.153Z,98162.69
2024-01-03T06:06:57.503Z,98175.25
2024-01-03T06:09:25.571Z,98179.78
2024-01-03T06:11:53.576Z,98179.78
2024-01-03T06:14:21.638Z,98173.41
2024-01-03T06:16:49.573Z,98205.97
2024-01-03T06:19:17.519Z,98196.84
2024-01-03T06:21:45.455Z,98204.44
2024-01-03T06:24:15.330Z,98205.41
2024-01-03T06:26:43.644Z,98205.88
2024-01-03T06:29:11.524Z,98203.38
2024-01-03T06:31:39.451Z,98204.06
2024-01-03T06:34:07.446Z,98202.66
2024-01-03T06:36:35.432Z,98214.16
2024-01-03T06:39:03.474Z,98208.53
2024-01-03T06:41:32.820Z,98209.84
2024-01-03T06:44:00.714Z,98211.28
2024-01-03T06:46:28.722Z,98208.03
2024-01-03T06:48:58.291Z,98223.75
2024-01-03T06:51:26.306Z,98225.13
2024-01-03T06:53:54.411Z,98217.75
2024-01-03T06:56:23.194Z,98239.72
2024-01-03T06:58:52.730Z,98255.00
2024-01-03T07:01:20.788Z,98253.00
2024-01-03T07:03:48.837Z,98236.50
2024-01-03T07:06:17.123Z,98246.63
2024-01-03T07:08:47.013Z,98250.22
2024-01-03T07:11:14.996Z,98256.09
2024-01-03T07:13:42.838Z,98244.00
2024-01-03T07:16:13.381Z,98250.28
2024-01-03T07:18:41.340Z,98253.84
2024-01-03T07:21:10.764Z,98269.94
2024-01-03T07:23:38.803Z,98269.19
2024-01-03T07:26:06.912Z,98253.91
2024-01-03T07:28:34.808Z,98246.63
2024-01-03T07:31:03.393Z,98246.09
2024-01-03T07:33:32.976Z,98248.75
2024-01-03T07:36:00.990Z,98255.22
2024-01-03T07:38:28.992Z,98274.25
2024-01-03T07:40:56.868Z,98276.41
2024-01-03T07:43:24.735Z,98267.56
2024-01-03T07:45:52.722Z,98268.06
2024-01-03T07:48:20.946Z,98276.47
2024-01-03T07:50:51.494Z,98267.47
2024-01-03T07:53:19.569Z,98279.88
2024-01-03T07:55:47.470Z,98269.66
2024-01-03T07:58:15.343Z,98275.47
2024-01-03T08:00:43.478Z,98278.06
2024-01-03T08:03:11.548Z,98269.75
2024-01-03T08:05:39.538Z,98266.09
2024-01-03T08:08:09.370Z,98283.59
2024-01-03T08:10:38.148Z,98275.47
2024-01-03T08:13:06.306Z,98271.66
2024-01-03T08:15:35.300Z,98283.16
2024-01-03T08:18:04.188Z,98266.28
2024-01-03T08:20:32.904Z,98277.69
2024-01-03T08:23:01.128Z,98272.94
2024-01-03T08:25:30.516Z,98282.47
2024-01-03T08:27:58.561Z,98277.91
2024-01-03T08:30:26.936Z,98290.59
2024-01-03T08:32:55.996Z,98283.28
2024-01-03T08:35:24.039Z,98277.53
2024-01-03T08:37:52.030Z,98305.41
2024-01-03T08:40:19.919Z,98285.94
2024-01-03T08:42:49.264Z,98291.38
2024-01-03T08:45:17.510Z,98303.31
2024-01-03T08:47:45.710Z,98292.09
2024-01-03T08:50:14.809Z,98288.09
2024-01-03T08:52:43.368Z,98303.16
2024-01-03T08:55:12.174Z,98308.72
2024-01-03T08:57:40.440Z,98320.19
2024-01-03T09:00:11.909Z,98317.97
2024-01-03T09:02:40.615Z,98331.53
2024-01-03T09:05:09.175Z,98331.28
2024-01-03T09:07:37.032Z,98324.63
2024-01-03T09:10:05.255Z,98314.53
2024-01-03T09:12:33.128Z,98340.50
2024-01-03T09:15:01.195Z,98336.25
2024-01-03T09:17:30.663Z,98338.22
2024-01-03T09:19:58.607Z,98340.41
2024-01-03T09:22:26.525Z,98336.09
2024-01-03T09:24:54.572Z,98332.50
2024-01-03T09:27:22.457Z,98336.84
2024-01-03T09:29:50.853Z,98344.66
2024-01-03T09:32:19.024Z,98344.25
2024-01-03T09:34:48.499Z,98358.06
2024-01-03T09:37:17.982Z,98351.94
2024-01-03T09:39:45.976Z,98353.34
2024-01-03T09:42:14.616Z,98357.72
2024-01-03T09:44:44.287Z,98365.94
2024-01-03T09:47:13.737Z,98368.56
2024-01-03T09:49:42.002Z,98370.78
2024-01-03T09:52:15.063Z,98382.03
2024-01-03T09:54:43.301Z,98357.59
2024-01-03T09:57:12.568Z,98365.63
2024-01-03T09:59:40.480Z,98389.63
2024-01-03T10:02:10.673Z,98384.16
2024-01-03T10:04:38.605Z,98372.63
2024-01-03T10:07:06.493Z,98365.53
2024-01-03T10:09:46.529Z,98360.66
2024-01-03T10:12:19.005Z,98377.72
2024-01-03T10:14:48.064Z,98369.44
2024-01-03T10:17:15.951Z,98366.38
2024-01-03T10:19:44.346Z,98368.22
2024-01-03T10:22:12.410Z,98372.00
2024-01-03T10:24:45.125Z,98376.84
2024-01-03T10:27:13.598Z,98376.47
2024-01-03T10:29:41.886Z,98382.94
2024-01-03T10:32:11.948Z,98379.88
2024-01-03T10:34:40.020Z,98392.69
2024-01-03T10:37:08.800Z,98389.41
2024-01-03T10:39:38.656Z,98392.47
2024-01-03T10:42:09.566Z,98394.66
2024-01-03T10:44:38.854Z,98383.78
2024-01-03T10:47:06.881Z,98392.56
2024-01-03T10:49:34.993Z,98396.13
2024-01-03T10:52:04.877Z,98388.63
2024-01-03T10:54:42.875Z,98391.13
2024-01-03T10:57:15.845Z,98405.56
2024-01-03T10:59:54.369Z,98397.41
2024-01-03T11:02:29.035Z,98408.59
2024-01-03T11:05:02.614Z,98412.28
2024-01-03T11:07:39.574Z,98404.75
2024-01-03T11:10:08.638Z,98417.69
2024-01-03T11:12:38.008Z,98409.47
2024-01-03T11:15:33.420Z,98412.03
2024-01-03T11:18:06.814Z,98401.97
2024-01-03T11:20:35.056Z,98403.59
2024-01-03T11:23:03.688Z,98419.78
2024-01-03T11:25:50.375Z,98406.00
2024-01-03T11:28:37.745Z,98412.28
2024-01-03T11:31:08.319Z,98407.16
2024-01-03T11:33:41.139Z,98427.16
2024-01-03T11:36:09.423Z,98415.69
2024-01-03T11:38:40.631Z,98426.75
2024-01-03T11:41:09.509Z,98427.84
2024-01-03T11:43:38.805Z,98415.47
2024-01-03T11:46:11.083Z,98431.75
2024-01-03T11:48:39.983Z,98423.91
2024-01-03T11:51:24.109Z,98418.66
2024-01-03T11:53:52.500Z,98413.72
2024-01-03T11:56:30.748Z,98418.78
2024-01-03T11:59:00.214Z,98415.38
2024-01-03T12:01:28.456Z,98416.78
2024-01-03T12:04:10.101Z,98411.59
2024-01-03T12:06:38.550Z,98416.59
2024-01-03T12:09:07.403Z,98412.53
2024-01-03T12:11:37.082Z,98419.50
2024-01-03T12:14:06.934Z,98408.50
2024-01-03T12:16:34.876Z,98409.56
2024-01-03T12:19:08.036Z,98398.38
2024-01-03T12:21:36.193Z,98398.00
2024-01-03T12:24:04.278Z,98425.47
2024-01-03T12:26:32.295Z,98410.31
2024-01-03T12:29:04.010Z,98407.25
2024-01-03T12:31:33.484Z,98407.16
2024-01-03T12:34:06.679Z,98410.06
2024-01-03T12:36:35.096Z,98402.47
2024-01-03T12:39:04.065Z,98401.00
2024-01-03T12:41:31.979Z,98418.50
2024-01-03T12:43:59.879Z,98408.69
2024-01-03T12:46:27.786Z,98414.09
2024-01-03T12:48:57.333Z,98405.22
2024-01-03T12:51:30.040Z,98412.75
2024-01-03T12:54:01.520Z,98405.97
2024-01-03T12:56:29.544Z,98396.81
2024-01-03T12:58:57.448Z,98399.22
2024-01-03T13:01:25.360Z,98393.19
2024-01-03T13:03:53.510Z,98414.34
2024-01-03T13:06:22.883Z,98417.44
2024-01-03T13:08:50.865Z,98419.19
2024-01-03T13:11:18.778Z,98425.53
2024-01-03T13:13:48.321Z,98416.91
2024-01-03T13:16:16.275Z,98424.47
2024-01-03T13:18:44.554Z,98420.38
2024-01-03T13:21:12.804Z,98425.72
2024-01-03T13:23:42.137Z,98423.34
2024-01-03T13:26:10.130Z,98428.13
2024-01-03T13:28:37.976Z,98422.03
2024-01-03T13:31:06.734Z,98430.84
2024-01-03T13:33:34.827Z,98416.16
2024-01-03T13:36:02.872Z,98421.88
2024-01-03T13:38:30.853Z,98428.81
2024-01-03T13:41:00.304Z,98425.38
2024-01-03T13:43:28.825Z,98423.28
2024-01-03T13:45:56.700Z,98426.16
2024-01-03T13:48:24.833Z,98431.50
2024-01-03T13:50:53.240Z,98434.38
2024-01-03T13:53:21.987Z,98444.84
2024-01-03T13:55:50.834Z,98446.25
2024-01-03T13:58:20.065Z,98453.25
2024-01-03T14:00:47.950Z,98463.69
2024-01-03T14:03:17.242Z,98455.09
2024-01-03T14:05:45.565Z,98444.75
2024-01-03T14:08:13.730Z,98458.53
2024-01-03T14:10:41.639Z,98450.41
2024-01-03T14:13:09.972Z,98444.91
2024-01-03T14:15:39.820Z,98440.00
2024-01-03T14:18:09.588Z,98437.34
2024-01-03T14:20:38.161Z,98441.06
2024-01-03T14:23:06.688Z,98432.25
2024-01-03T14:25:35.174Z,98445.44
2024-01-03T14:28:03.088Z,98442.59
2024-01-03T14:30:32.156Z,98444.06
2024-01-03T14:33:01.652Z,98439.00
2024-01-03T14:35:29.926Z,98449.91
2024-01-03T14:37:57.749Z,98446.03
2024-01-03T14:40:29.710Z,98453.50
2024-01-03T14:43:04.514Z,98444.22
2024-01-03T14:45:33.405Z,98455.50
2024-01-03T14:48:02.766Z,98450.16
2024-01-03T14:50:34.072Z,98456.34
2024-01-03T14:53:03.345Z,98445.41
2024-01-03T14:55:31.434Z,98449.34
2024-01-03T14:57:59.257Z,98454.41
2024-01-03T15:00:27.164Z,98449.84
2024-01-03T15:03:04.128Z,98481.47
2024-01-03T15:05:41.293Z,98468.50
2024-01-03T15:08:11.607Z,98444.81
2024-01-03T15:10:39.687Z,98471.81
2024-01-03T15:13:08.053Z,98472.53
2024-01-03T15:15:36.712Z,98482.81
2024-01-03T15:18:06.110Z,98486.94
2024-01-03T15:20:34.753Z,98492.41
2024-01-03T15:23:04.081Z,98497.44
2024-01-03T15:25:32.025Z,98497.66
2024-01-03T15:28:00.964Z,98491.09
2024-01-03T15:30:29.994Z,98490.84
2024-01-03T15:32:58.849Z,98493.81
2024-01-03T15:35:27.287Z,98501.22
2024-01-03T15:37:55.410Z,98497.22
2024-01-03T15:40:26.045Z,98497.75
2024-01-03T15:42:57.557Z,98497.38
2024-01-03T15:45:25.412Z,98484.69
2024-01-03T15:47:53.345Z,98486.91
2024-01-03T15:50:21.461Z,98486.34
2024-01-03T15:52:49.854Z,98488.22
2024-01-03T15:55:19.078Z,98490.28
2024-01-03T15:57:49.758Z,98493.91
2024-01-03T16:00:18.020Z,98495.88
2024-01-03T16:02:46.166Z,98492.63
2024-01-03T16:05:16.001Z,98479.66
2024-01-03T16:07:43.977Z,98486.34
2024-01-03T16:10:11.887Z,98492.75
2024-01-03T16:12:39.882Z,98488.34
2024-01-03T16:15:09.502Z,98483.59
2024-01-03T16:17:37.969Z,98482.34
2024-01-03T16:20:06.850Z,98493.13
2024-01-03T16:22:34.770Z,98491.53
2024-01-03T16:25:12.032Z,98495.47
2024-01-03T16:27:40.577Z,98485.72
2024-01-03T16:30:11.113Z,98487.91
2024-01-03T16:32:39.065Z,98491.78
2024-01-03T16:35:07.894Z,98489.34
2024-01-03T16:37:35.817Z,98483.69
2024-01-03T16:40:03.663Z,98487.97
2024-01-03T16:42:31.543Z,98484.78
2024-01-03T16:44:59.569Z,98478.06
2024-01-03T16:47:28.873Z,98476.63
2024-01-03T16:49:56.915Z,98482.38
2024-01-03T16:52:24.900Z,98472.06
2024-01-03T16:54:52.762Z,98472.47
2024-01-03T16:57:20.674Z,98470.09
2024-01-03T16:59:49.308Z,98486.84
2024-01-03T17:02:17.298Z,98473.47
2024-01-03T17:04:46.660Z,98480.81
2024-01-03T17:07:14.695Z,98469.53
2024-01-03T17:09:42.637Z,98482.63
2024-01-03T17:12:10.744Z,98479.00
2024-01-03T17:14:38.787Z,98479.75
2024-01-03T17:17:06.658Z,98484.19
2024-01-03T17:19:39.827Z,98478.25
2024-01-03T17:22:09.161Z,98477.53
2024-01-03T17:24:37.020Z,98479.09
2024-01-03T17:27:05.492Z,98486.72
2024-01-03T17:29:33.489Z,98495.69
2024-01-03T17:32:04.279Z,98489.03
2024-01-03T17:34:33.024Z,98486.19
2024-01-03T17:37:00.946Z,98487.38
2024-01-03T17:39:30.462Z,98499.69
2024-01-03T17:41:58.466Z,98486.06
2024-01-03T17:44:26.359Z,98490.06
2024-01-03T17:46:54.300Z,98488.59
2024-01-03T17:49:23.386Z,98497.31
2024-01-03T17:51:51.416Z,98502.66
2024-01-03T17:54:21.836Z,98500.41
2024-01-03T17:56:52.025Z,98496.22
2024-01-03T17:59:20.014Z,98498.22
2024-01-03T18:01:51.278Z,98482.63
2024-01-03T18:04:19.243Z,98495.97
2024-01-03T18:06:47.105Z,98500.19
2024-01-03T18:09:15.619Z,98489.81
2024-01-03T18:11:50.740Z,98496.28
2024-01-03T18:14:20.097Z,98493.63
2024-01-03T18:16:48.526Z,98487.56
2024-01-03T18:19:17.054Z,98492.19
2024-01-03T18:21:45.100Z,98490.53
2024-01-03T18:24:15.555Z,98495.44
2024-01-03T18:26:43.769Z,98497.06
2024-01-03T18:29:11.684Z,98494.56
2024-01-03T18:31:41.612Z,98493.66
2024-01-03T18:34:11.152Z,98498.25
2024-01-03T18:36:45.046Z,98497.56
2024-01-03T18:39:16.104Z,98502.84
2024-01-03T18:41:45.801Z,98510.19
2024-01-03T18:44:13.866Z,98518.47
2024-01-03T18:46:43.098Z,98526.97
2024-01-03T18:49:11.160Z,98523.25
2024-01-03T18:51:39.154Z,98530.13
2024-01-03T18:54:13.847Z,98540.63
2024-01-03T18:56:43.792Z,98537.16
2024-01-03T18:59:11.829Z,98545.63
2024-01-03T19:01:42.496Z,98531.13
2024-01-03T19:04:15.512Z,98530.41
2024-01-03T19:06:44.467Z,98530.00
2024-01-03T19:09:15.483Z,98533.03
2024-01-03T19:11:46.273Z,98539.66
2024-01-03T19:14:15.536Z,98539.09
2024-01-03T19:16:43.446Z,98544.28
2024-01-03T19:19:12.883Z,98546.56
2024-01-03T19:21:40.786Z,98549.41
2024-01-03T19:24:08.974Z,98548.94
2024-01-03T19:26:36.954Z,98553.88
2024-01-03T19:29:04.851Z,98553.69
2024-01-03T19:31:32.715Z,98560.41
2024-01-03T19:34:01.252Z,98551.56
2024-01-03T19:36:30.718Z,98554.78
2024-01-03T19:38:58.843Z,98555.25
2024-01-03T19:41:26.987Z,98557.28
2024-01-03T19:43:54.883Z,98554.72
2024-01-03T19:46:22.836Z,98564.94
2024-01-03T19:48:50.906Z,98559.91
2024-01-03T19:51:20.298Z,98559.25
2024-01-03T19:53:50.092Z,98567.38
2024-01-03T19:56:18.104Z,98565.72
2024-01-03T19:58:46.531Z,98567.50
2024-01-03T20:01:14.997Z,98576.47
2024-01-03T20:03:44.253Z,98577.00
2024-01-03T20:06:20.916Z,98581.41
2024-01-03T20:08:50.520Z,98584.31
2024-01-03T20:11:18.791Z,98575.91
2024-01-03T20:13:47.544Z,98592.34
2024-01-03T20:16:15.741Z,98591.97
2024-01-03T20:18:43.933Z,98595.44
2024-01-03T20:21:12.929Z,98594.50
2024-01-03T20:23:42.190Z,98603.19
2024-01-03T20:26:17.153Z,98597.72
2024-01-03T20:28:46.907Z,98597.00
2024-01-03T20:31:19.204Z,98612.03
2024-01-03T20:33:47.451Z,98609.94
2024-01-03T20:36:21.912Z,98599.97
2024-01-03T20:38:51.492Z,98603.91
2024-01-03T20:41:22.506Z,98618.16
2024-01-03T20:43:50.609Z,98612.19
2024-01-03T20:46:18.844Z,98619.72
2024-01-03T20:48:47.170Z,98613.13
2024-01-03T20:51:18.290Z,98613.28
2024-01-03T20:53:46.402Z,98623.63
2024-01-03T20:56:14.451Z,98619.72
2024-01-03T20:58:45.128Z,98617.34
2024-01-03T21:01:13.657Z,98622.53
2024-01-03T21:03:42.722Z,98628.16
2024-01-03T21:06:11.465Z,98632.47
2024-01-03T21:08:39.888Z,98641.31
2024-01-03T21:11:08.990Z,98640.19
2024-01-03T21:13:37.459Z,98635.44
2024-01-03T21:16:08.269Z,98625.34
2024-01-03T21:18:36.427Z,98629.81
2024-01-03T21:21:04.946Z,98631.38
2024-01-03T21:23:33.445Z,98619.13
2024-01-03T21:26:03.237Z,98629.38
2024-01-03T21:28:31.500Z,98630.38
2024-01-03T21:30:59.505Z,98627.16
2024-01-03T21:33:28.939Z,98630.50
2024-01-03T21:35:57.960Z,98635.28
2024-01-03T21:38:27.030Z,98633.19
2024-01-03T21:40:54.987Z,98635.69
2024-01-03T21:43:22.966Z,98633.03
2024-01-03T21:45:50.862Z,98633.19
2024-01-03T21:48:18.780Z,98632.22
2024-01-03T21:50:48.070Z,98637.25
2024-01-03T21:53:15.977Z,98645.53
2024-01-03T21:55:43.809Z,98634.88
2024-01-03T21:58:11.752Z,98628.38
2024-01-03T22:00:39.749Z,98630.66
2024-01-03T22:03:07.713Z,98629.66
2024-01-03T22:05:35.765Z,98635.13
2024-01-03T22:08:07.354Z,98641.00
2024-01-03T22:10:37.568Z,98644.38
2024-01-03T22:13:09.126Z,98638.75
2024-01-03T22:15:37.175Z,98660.06
2024-01-03T22:18:05.295Z,98643.66
2024-01-03T22:20:34.985Z,98650.81
2024-01-03T22:23:02.989Z,98648.97
2024-01-03T22:25:32.505Z,98652.75
2024-01-03T22:28:00.568Z,98655.25
2024-01-03T22:30:28.661Z,98663.94
2024-01-03T22:32:56.595Z,98649.94
2024-01-03T22:35:24.678Z,98656.50
2024-01-03T22:37:52.558Z,98667.03
2024-01-03T22:40:20.442Z,98672.34
2024-01-03T22:42:49.927Z,98667.88
2024-01-03T22:45:17.982Z,98671.53
2024-01-03T22:47:46.242Z,98675.59
2024-01-03T22:50:14.461Z,98676.69
2024-01-03T22:52:42.523Z,98682.00
2024-01-03T22:55:10.527Z,98679.91
2024-01-03T22:57:38.527Z,98683.25
2024-01-03T23:00:12.698Z,98690.41
2024-01-03T23:02:40.987Z,98685.66
2024-01-03T23:05:09.446Z,98687.44
2024-01-03T23:07:37.274Z,98685.22
2024-01-03T23:10:05.950Z,98689.28
2024-01-03T23:12:33.911Z,98692.50
2024-01-03T23:15:01.965Z,98690.69
2024-01-03T23:17:31.411Z,98692.78
2024-01-03T23:20:00.589Z,98690.97
2024-01-03T23:22:28.566Z,98694.59
2024-01-03T23:24:56.815Z,98699.44
2024-01-03T23:27:24.671Z,98698.75
2024-01-03T23:29:54.276Z,98691.22
2024-01-03T23:32:22.991Z,98697.38
2024-01-03T23:34:52.250Z,98707.78
2024-01-03T23:37:20.159Z,98706.75
2024-01-03T23:39:52.673Z,98703.41
2024-01-03T23:42:20.559Z,98707.34
2024-01-03T23:44:48.630Z,98711.69
2024-01-03T23:47:18.001Z,98719.50
2024-01-03T23:49:45.932Z,98715.38
2024-01-03T23:52:15.478Z,98725.81
2024-01-03T23:54:59.338Z,98721.91
2024-01-03T23:57:27.419Z,98724.72
2024-01-03T23:59:55.465Z,98720.94
